createdAt,value
2023-03-10T00:02:49.747Z,63.91
2023-03-10T00:07:52.481Z,63.66
2023-03-10T00:12:56.661Z,63.80
2023-03-10T00:17:59.394Z,63.95
2023-03-10T00:23:02.098Z,64.00
2023-03-10T00:28:04.878Z,64.44
2023-03-10T00:33:07.657Z,64.42
2023-03-10T00:38:10.369Z,64.66
2023-03-10T00:43:13.101Z,64.70
2023-03-10T00:48:16.788Z,64.53
2023-03-10T00:53:19.749Z,65.48
2023-03-10T00:58:22.465Z,66.43
2023-03-10T01:03:27.511Z,66.27
2023-03-10T01:08:30.242Z,66.85
2023-03-10T01:13:33.401Z,67.14
2023-03-10T01:18:37.881Z,68.00
2023-03-10T01:23:40.619Z,68.14
2023-03-10T01:28:43.422Z,68.82
2023-03-10T01:33:46.884Z,69.33
2023-03-10T01:38:49.764Z,69.21
2023-03-10T01:43:55.442Z,68.96
2023-03-10T01:49:04.903Z,69.02
2023-03-10T01:54:13.650Z,69.56
2023-03-10T01:59:17.021Z,69.60
2023-03-10T02:04:28.129Z,69.75
2023-03-10T02:09:33.902Z,69.71
2023-03-10T02:14:37.611Z,69.92
2023-03-10T02:20:02.623Z,69.97
2023-03-10T02:25:05.405Z,70.37
2023-03-10T02:30:26.133Z,71.20
2023-03-10T02:35:29.311Z,71.78
2023-03-10T02:40:45.333Z,71.87
2023-03-10T02:45:50.302Z,72.42
2023-03-10T02:50:55.218Z,73.24
2023-03-10T02:55:59.822Z,73.72
2023-03-10T03:01:06.661Z,73.36
2023-03-10T03:06:10.389Z,73.72
2023-03-10T03:11:14.222Z,73.62
2023-03-10T03:16:17.014Z,74.63
2023-03-10T03:21:21.373Z,74.68
2023-03-10T03:26:26.927Z,74.87
2023-03-10T03:31:29.691Z,75.24
2023-03-10T03:36:33.769Z,75.54
2023-03-10T03:41:36.581Z,76.13
2023-03-10T03:46:39.328Z,76.58
2023-03-10T03:51:42.030Z,77.41
2023-03-10T03:56:44.783Z,77.31
2023-03-10T04:01:47.480Z,78.12
2023-03-10T04:06:50.216Z,78.41
2023-03-10T04:11:53.461Z,79.06
2023-03-10T04:16:56.198Z,79.61
2023-03-10T04:21:58.931Z,79.30
2023-03-10T04:27:02.041Z,79.52
2023-03-10T04:32:06.051Z,79.82
2023-03-10T04:37:08.970Z,80.12
2023-03-10T04:42:11.703Z,80.12
2023-03-10T04:47:14.667Z,80.37
2023-03-10T04:52:17.382Z,80.43
2023-03-10T04:57:20.319Z,80.65
2023-03-10T05:02:23.037Z,81.09
2023-03-10T05:07:25.812Z,81.93
2023-03-10T05:12:28.515Z,82.33
2023-03-10T05:17:31.286Z,83.18
2023-03-10T05:22:34.026Z,83.82
2023-03-10T05:27:39.420Z,84.14
2023-03-10T05:32:44.003Z,84.84
2023-03-10T05:37:46.884Z,84.50
2023-03-10T05:42:50.968Z,84.91
2023-03-10T05:47:53.663Z,85.45
2023-03-10T05:52:58.543Z,85.76
2023-03-10T05:58:01.339Z,85.48
2023-03-10T06:03:04.619Z,85.11
2023-03-10T06:08:07.444Z,85.07
2023-03-10T06:13:10.160Z,85.39
2023-03-10T06:18:12.868Z,84.97
2023-03-10T06:23:18.537Z,85.56
2023-03-10T06:28:21.425Z,85.74
2023-03-10T06:33:25.488Z,86.23
2023-03-10T06:38:28.533Z,86.51
2023-03-10T06:43:33.964Z,86.38
2023-03-10T06:48:38.071Z,86.14
2023-03-10T06:53:44.033Z,86.45
2023-03-10T06:58:48.557Z,86.48
2023-03-10T07:03:51.964Z,86.50
2023-03-10T07:08:55.196Z,86.54
2023-03-10T07:13:58.551Z,86.50
2023-03-10T07:19:01.840Z,86.29
2023-03-10T07:24:05.152Z,86.15
2023-03-10T07:29:10.408Z,86.20
2023-03-10T07:34:13.987Z,86.29
2023-03-10T07:39:16.843Z,86.13
2023-03-10T07:44:20.695Z,86.39
2023-03-10T07:49:23.470Z,86.03
2023-03-10T07:54:26.225Z,86.19
2023-03-10T07:59:29.840Z,85.55
2023-03-10T08:04:32.985Z,85.04
2023-03-10T08:09:37.286Z,85.62
2023-03-10T08:14:42.459Z,85.56
2023-03-10T08:19:45.463Z,85.61
2023-03-10T08:24:48.420Z,85.71
2023-03-10T08:38:55.498Z,85.37
2023-03-10T08:44:00.336Z,85.41
2023-03-10T08:54:51.495Z,85.66
2023-03-10T08:59:54.373Z,85.64
2023-03-10T09:04:58.894Z,85.39
2023-03-10T09:10:02.041Z,84.45
2023-03-10T09:15:05.483Z,84.42
2023-03-10T09:20:11.287Z,85.06
2023-03-10T09:25:14.256Z,84.92
2023-03-10T09:30:19.834Z,84.49
2023-03-10T09:35:24.019Z,84.37
2023-03-10T09:40:27.782Z,84.32
2023-03-10T09:45:32.743Z,83.26
2023-03-10T09:50:51.076Z,83.28
2023-03-10T09:55:56.427Z,82.08
2023-03-10T10:01:00.954Z,81.17
2023-03-10T10:06:07.015Z,81.23
2023-03-10T10:11:15.338Z,80.79
2023-03-10T10:16:41.563Z,80.72
2023-03-10T10:22:00.023Z,81.28
2023-03-10T10:27:02.944Z,81.34
2023-03-10T10:32:14.357Z,81.31
2023-03-10T10:37:43.153Z,81.62
2023-03-10T10:42:54.023Z,81.59
2023-03-10T10:47:59.511Z,81.99
2023-03-10T10:53:37.748Z,82.69
2023-03-10T10:58:46.687Z,82.50
2023-03-10T11:04:04.905Z,82.13
2023-03-10T11:09:14.160Z,81.79
2023-03-10T11:14:49.894Z,81.71
2023-03-10T11:20:17.852Z,81.07
2023-03-10T11:25:44.344Z,81.18
2023-03-10T11:31:13.826Z,81.00
2023-03-10T11:36:22.188Z,80.27
2023-03-10T11:41:30.905Z,80.40
2023-03-10T11:46:47.315Z,80.15
2023-03-10T11:51:57.153Z,80.03
2023-03-10T11:57:03.677Z,80.28
2023-03-10T12:02:17.093Z,80.24
2023-03-10T12:07:24.279Z,80.60
2023-03-10T12:12:38.233Z,80.30
2023-03-10T12:17:42.283Z,80.09
2023-03-10T12:22:51.533Z,80.58
2023-03-10T12:28:15.816Z,80.94
2023-03-10T12:33:30.373Z,81.29
2023-03-10T12:38:43.426Z,81.44
2023-03-10T12:43:56.729Z,80.77
2023-03-10T12:49:22.911Z,80.76
2023-03-10T12:54:28.410Z,80.56
2023-03-10T12:59:42.306Z,80.50
2023-03-10T13:04:45.493Z,80.35
2023-03-10T13:09:50.107Z,80.14
2023-03-10T13:14:57.205Z,80.49
2023-03-10T13:20:09.284Z,80.97
2023-03-10T13:25:14.861Z,80.97
2023-03-10T13:30:21.425Z,81.23
2023-03-10T13:35:38.174Z,81.09
2023-03-10T13:40:51.839Z,81.94
2023-03-10T13:46:02.431Z,82.11
2023-03-10T13:51:08.180Z,82.17
2023-03-10T13:56:28.621Z,82.45
2023-03-10T14:01:35.030Z,82.62
2023-03-10T14:06:38.248Z,82.74
2023-03-10T14:11:44.997Z,82.71
2023-03-10T14:16:49.754Z,82.44
2023-03-10T14:22:01.658Z,82.76
2023-03-10T14:27:10.420Z,82.92
2023-03-10T14:32:13.809Z,82.89
2023-03-10T14:37:16.758Z,83.23
2023-03-10T14:42:26.964Z,83.11
2023-03-10T14:47:29.979Z,83.13
2023-03-10T14:52:32.996Z,83.21
2023-03-10T14:57:36.974Z,83.22
2023-03-10T15:02:39.805Z,83.29
2023-03-10T15:07:44.722Z,83.44
2023-03-10T15:12:50.180Z,83.32
2023-03-10T15:17:53.304Z,83.55
2023-03-10T15:22:56.228Z,83.85
2023-03-10T15:27:58.992Z,84.16
2023-03-10T15:33:02.522Z,84.11
2023-03-10T15:38:05.261Z,84.27
2023-03-10T15:43:08.888Z,84.36
2023-03-10T15:48:11.680Z,84.54
2023-03-10T15:53:15.154Z,84.54
2023-03-10T15:58:18.733Z,84.97
2023-03-10T16:03:21.464Z,85.49
2023-03-10T16:08:24.402Z,85.64
2023-03-10T16:13:27.201Z,85.64
2023-03-10T16:18:30.066Z,85.64
2023-03-10T16:23:34.253Z,85.78
2023-03-10T16:28:39.854Z,86.04
2023-03-10T16:33:43.122Z,86.43
2023-03-10T16:38:46.594Z,86.47
2023-03-10T16:43:49.771Z,87.05
2023-03-10T16:48:54.570Z,87.02
2023-03-10T16:53:59.929Z,87.05
2023-03-10T16:59:02.673Z,87.20
2023-03-10T17:04:05.449Z,87.79
2023-03-10T17:09:10.917Z,88.01
2023-03-10T17:14:15.988Z,87.63
2023-03-10T17:19:21.382Z,87.32
2023-03-10T17:24:24.930Z,87.52
2023-03-10T17:29:28.026Z,87.73
2023-03-10T17:34:30.896Z,88.15
2023-03-10T17:39:35.340Z,88.20
2023-03-10T17:44:38.325Z,88.17
2023-03-10T17:49:41.160Z,88.07
2023-03-10T17:54:43.946Z,88.16
2023-03-10T17:59:46.643Z,88.22
2023-03-10T18:04:49.448Z,88.85
2023-03-10T18:09:52.487Z,88.88
2023-03-10T18:14:55.260Z,88.69
2023-03-10T18:19:58.695Z,88.73
2023-03-10T18:25:01.697Z,88.56
2023-03-10T18:30:06.915Z,88.24
2023-03-10T18:35:11.390Z,88.63
2023-03-10T18:40:16.256Z,88.66
2023-03-10T18:45:19.058Z,88.72
2023-03-10T18:50:21.876Z,88.97
2023-03-10T18:55:24.646Z,88.97
2023-03-10T19:00:27.762Z,88.67
2023-03-10T19:05:30.904Z,88.87
2023-03-10T19:10:33.967Z,89.47
2023-03-10T19:15:37.813Z,89.51
2023-03-10T19:20:40.631Z,89.18
2023-03-10T19:25:43.729Z,89.25
2023-03-10T19:30:46.463Z,89.25
2023-03-10T19:35:50.431Z,88.86
2023-03-10T19:40:53.189Z,89.28
2023-03-10T19:46:03.984Z,89.44
2023-03-10T19:51:07.686Z,89.50
2023-03-10T19:56:10.872Z,89.38
2023-03-10T20:01:15.943Z,89.53
2023-03-10T20:06:19.014Z,89.91
2023-03-10T20:11:21.861Z,90.37
2023-03-10T20:16:27.802Z,90.13
2023-03-10T20:21:31.185Z,89.72
2023-03-10T20:26:34.884Z,89.88
2023-03-10T20:31:37.681Z,89.77
2023-03-10T20:36:40.464Z,89.99
2023-03-10T20:41:44.987Z,90.44
2023-03-10T20:46:47.987Z,90.22
2023-03-10T20:51:50.890Z,90.03
2023-03-10T20:56:54.171Z,90.05
2023-03-10T21:01:56.880Z,90.20
2023-03-10T21:06:59.765Z,90.50
2023-03-10T21:12:03.383Z,90.81
2023-03-10T21:17:07.343Z,90.64
2023-03-10T21:22:10.543Z,90.32
2023-03-10T21:27:13.335Z,90.11
2023-03-10T21:32:16.065Z,89.82
2023-03-10T21:37:19.237Z,89.94
2023-03-10T21:42:22.034Z,90.42
2023-03-10T21:47:24.744Z,90.71
2023-03-10T21:52:27.638Z,90.59
2023-03-10T21:57:30.370Z,90.33
2023-03-10T22:02:35.677Z,90.66
2023-03-10T22:07:39.420Z,90.90
2023-03-10T22:12:42.224Z,90.87
2023-03-10T22:17:46.335Z,91.09
2023-03-10T22:22:49.368Z,90.79
2023-03-10T22:27:54.577Z,90.75
2023-03-10T22:32:57.834Z,90.92
2023-03-10T22:38:00.580Z,91.36
2023-03-10T22:43:03.463Z,91.49
2023-03-10T22:48:06.596Z,91.36
2023-03-10T22:53:15.166Z,91.30
2023-03-10T22:58:17.924Z,91.23
2023-03-10T23:03:20.871Z,91.28
2023-03-10T23:08:23.992Z,91.14
2023-03-10T23:13:26.793Z,91.87
2023-03-10T23:18:29.596Z,91.56
2023-03-10T23:23:33.832Z,91.19
2023-03-10T23:28:36.825Z,91.20
2023-03-10T23:33:39.642Z,91.10
2023-03-10T23:38:42.451Z,91.36
2023-03-10T23:43:45.183Z,91.67
2023-03-10T23:48:51.277Z,91.60
2023-03-10T23:53:54.004Z,91.27
2023-03-10T23:58:58.909Z,90.86
